createdAt,value
2023-10-06T00:02:53.182Z,101608.09
2023-10-06T00:05:57.730Z,101606.53
2023-10-06T00:09:00.713Z,101614.34
2023-10-06T00:12:06.567Z,101615.75
2023-10-06T00:15:13.045Z,101602.22
2023-10-06T00:18:25.400Z,101600.22
2023-10-06T00:21:30.447Z,101601.66
2023-10-06T00:24:33.210Z,101581.13
2023-10-06T00:27:39.523Z,101588.91
2023-10-06T00:30:42.664Z,101593.03
2023-10-06T00:33:46.520Z,101600.22
2023-10-06T00:36:53.254Z,101601.66
2023-10-06T00:39:57.458Z,101591.00
2023-10-06T00:43:02.203Z,101590.16
2023-10-06T00:46:08.044Z,101587.66
2023-10-06T00:49:11.075Z,101585.06
2023-10-06T00:52:16.839Z,101582.69
2023-10-06T00:55:21.526Z,101573.22
2023-10-06T00:58:27.773Z,101569.97
2023-10-06T01:01:30.783Z,101563.81
2023-10-06T01:04:36.461Z,101565.31
2023-10-06T01:07:39.902Z,101564.25
2023-10-06T01:10:42.635Z,101573.25
2023-10-06T01:13:56.920Z,101568.06
2023-10-06T01:17:18.410Z,101563.88
2023-10-06T01:20:50.616Z,101571.84
2023-10-06T01:23:54.921Z,101587.28
2023-10-06T01:27:01.925Z,101590.81
2023-10-06T01:30:17.395Z,101599.69
2023-10-06T01:33:20.564Z,101600.81
2023-10-06T01:36:26.235Z,101615.88
2023-10-06T01:39:33.087Z,101618.09
2023-10-06T01:42:35.823Z,101625.06
2023-10-06T01:45:45.355Z,101622.84
2023-10-06T01:48:48.375Z,101626.00
2023-10-06T01:52:06.464Z,101626.25
2023-10-06T01:55:12.310Z,101624.47
2023-10-06T01:58:15.165Z,101624.53
2023-10-06T02:01:20.068Z,101622.78
2023-10-06T02:04:26.748Z,101626.91
2023-10-06T02:07:29.589Z,101619.81
2023-10-06T02:10:33.819Z,101617.59
2023-10-06T02:13:39.228Z,101627.50
2023-10-06T02:16:42.094Z,101624.63
2023-10-06T02:19:45.031Z,101619.16
2023-10-06T02:22:47.818Z,101627.72
2023-10-06T02:25:50.632Z,101633.44
2023-10-06T02:28:55.878Z,101636.50
2023-10-06T02:32:08.966Z,101632.56
2023-10-06T02:35:14.009Z,101627.44
2023-10-06T02:38:17.037Z,101627.44
2023-10-06T02:41:27.555Z,101633.22
2023-10-06T02:44:31.837Z,101632.44
2023-10-06T02:47:34.847Z,101642.50
2023-10-06T02:50:37.811Z,101638.88
2023-10-06T02:53:40.583Z,101649.47
2023-10-06T02:56:45.640Z,101646.81
2023-10-06T02:59:49.750Z,101652.50
2023-10-06T03:03:20.065Z,101654.53
2023-10-06T03:06:23.026Z,101661.13
2023-10-06T03:09:29.408Z,101664.66
2023-10-06T03:12:33.384Z,101653.22
2023-10-06T03:15:46.963Z,101668.19
2023-10-06T03:18:53.794Z,101672.31
2023-10-06T03:22:02.344Z,101679.47
2023-10-06T03:25:15.651Z,101689.72
2023-10-06T03:28:19.604Z,101685.22
2023-10-06T03:31:22.502Z,101683.63
2023-10-06T03:34:27.473Z,101692.25
2023-10-06T03:37:38.568Z,101694.69
2023-10-06T03:40:49.723Z,101692.94
2023-10-06T03:43:54.628Z,101683.56
2023-10-06T03:47:03.004Z,101694.28
2023-10-06T03:50:09.347Z,101693.94
2023-10-06T03:53:14.398Z,101696.28
2023-10-06T03:56:17.867Z,101691.03
2023-10-06T03:59:22.827Z,101697.66
2023-10-06T04:02:40.053Z,101697.66
2023-10-06T04:05:45.648Z,101699.09
2023-10-06T04:08:48.664Z,101703.00
2023-10-06T04:11:53.460Z,101697.03
2023-10-06T04:14:56.352Z,101709.19
2023-10-06T04:17:59.089Z,101709.81
2023-10-06T04:21:04.339Z,101706.16
2023-10-06T04:24:07.336Z,101710.31
2023-10-06T04:27:10.914Z,101706.03
2023-10-06T04:30:14.007Z,101709.28
2023-10-06T04:33:19.921Z,101707.88
2023-10-06T04:36:24.352Z,101708.72
2023-10-06T04:39:28.023Z,101710.75
2023-10-06T04:42:32.908Z,101711.78
2023-10-06T04:45:35.790Z,101707.69
2023-10-06T04:48:39.423Z,101714.69
2023-10-06T04:51:42.841Z,101709.53
2023-10-06T04:54:45.772Z,101719.59
2023-10-06T04:57:48.893Z,101721.66
2023-10-06T05:00:54.863Z,101723.28
2023-10-06T05:03:57.695Z,101726.38
2023-10-06T05:07:01.983Z,101715.69
2023-10-06T05:10:15.203Z,101732.16
2023-10-06T05:13:18.021Z,101743.06
2023-10-06T05:16:21.246Z,101737.47
2023-10-06T05:19:24.136Z,101749.00
2023-10-06T05:22:26.829Z,101754.72
2023-10-06T05:25:30.930Z,101756.78
2023-10-06T05:28:35.296Z,101762.31
2023-10-06T05:31:38.592Z,101768.47
2023-10-06T05:34:41.812Z,101772.78
2023-10-06T05:37:48.083Z,101784.06
2023-10-06T05:40:50.969Z,101775.66
2023-10-06T05:43:54.404Z,101779.72
2023-10-06T05:46:57.602Z,101791.22
2023-10-06T05:50:01.345Z,101787.34
2023-10-06T05:53:14.490Z,101796.59
2023-10-06T05:56:17.923Z,101791.25
2023-10-06T05:59:23.006Z,101796.31
2023-10-06T06:02:26.885Z,101790.72
2023-10-06T06:05:37.231Z,101794.66
2023-10-06T06:08:41.878Z,101800.59
2023-10-06T06:11:44.714Z,101800.19
2023-10-06T06:14:47.794Z,101801.81
2023-10-06T06:17:52.499Z,101807.06
2023-10-06T06:20:55.959Z,101809.44
2023-10-06T06:23:59.151Z,101807.16
2023-10-06T06:27:03.202Z,101809.41
2023-10-06T06:30:07.152Z,101810.34
2023-10-06T06:33:13.600Z,101807.75
2023-10-06T06:36:16.680Z,101816.25
2023-10-06T06:39:20.210Z,101820.72
2023-10-06T06:42:24.098Z,101819.13
2023-10-06T06:45:27.381Z,101824.63
2023-10-06T06:48:45.317Z,101828.19
2023-10-06T06:52:17.053Z,101827.41
2023-10-06T06:55:44.309Z,101834.09
2023-10-06T07:02:18.184Z,101835.13
2023-10-06T07:05:23.044Z,101828.19
2023-10-06T07:08:26.701Z,101828.19
2023-10-06T07:11:29.975Z,101831.97
2023-10-06T07:14:32.914Z,101831.09
2023-10-06T07:17:35.715Z,101840.25
2023-10-06T07:20:38.822Z,101840.09
2023-10-06T07:23:41.636Z,101844.38
2023-10-06T07:26:45.008Z,101836.47
2023-10-06T07:29:56.469Z,101834.06
2023-10-06T07:33:00.629Z,101838.00
2023-10-06T07:36:13.654Z,101835.22
2023-10-06T07:39:22.243Z,101845.59
2023-10-06T07:42:25.427Z,101839.97
2023-10-06T07:45:28.385Z,101841.28
2023-10-06T07:48:31.255Z,101836.66
2023-10-06T07:51:35.127Z,101836.91
2023-10-06T07:54:38.239Z,101833.69
2023-10-06T07:57:47.079Z,101834.88
2023-10-06T08:00:52.973Z,101836.00
2023-10-06T08:03:55.734Z,101832.53
2023-10-06T08:06:58.527Z,101843.91
2023-10-06T08:10:06.174Z,101846.09
2023-10-06T08:13:12.036Z,101840.41
2023-10-06T08:16:14.925Z,101841.47
2023-10-06T08:19:18.066Z,101851.94
2023-10-06T08:22:23.555Z,101848.75
2023-10-06T08:25:27.346Z,101855.69
2023-10-06T08:28:33.154Z,101862.63
2023-10-06T08:31:36.186Z,101849.88
2023-10-06T08:34:40.686Z,101861.44
2023-10-06T08:37:48.576Z,101860.28
2023-10-06T08:40:57.650Z,101847.94
2023-10-06T08:44:04.067Z,101856.66
2023-10-06T08:47:26.223Z,101853.25
2023-10-06T08:50:34.232Z,101851.88
2023-10-06T08:53:41.351Z,101853.22
2023-10-06T08:56:44.779Z,101846.03
2023-10-06T08:59:47.626Z,101847.13
2023-10-06T09:02:52.968Z,101850.19
2023-10-06T09:05:55.723Z,101851.19
2023-10-06T09:08:58.971Z,101850.19
2023-10-06T09:12:01.715Z,101851.13
2023-10-06T09:15:05.659Z,101844.72
2023-10-06T09:18:29.220Z,101850.75
2023-10-06T09:21:33.900Z,101854.13
2023-10-06T09:24:36.712Z,101842.19
2023-10-06T09:27:39.578Z,101842.88
2023-10-06T09:30:58.654Z,101850.94
2023-10-06T09:34:01.712Z,101839.09
2023-10-06T09:37:20.294Z,101850.41
2023-10-06T09:40:23.586Z,101850.47
2023-10-06T09:43:26.711Z,101839.69
2023-10-06T09:46:30.789Z,101843.06
2023-10-06T09:49:35.127Z,101844.06
2023-10-06T09:52:43.849Z,101842.56
2023-10-06T09:55:50.781Z,101832.47
2023-10-06T09:58:53.884Z,101831.53
2023-10-06T10:01:58.996Z,101832.13
2023-10-06T10:05:04.634Z,101829.00
2023-10-06T10:08:11.237Z,101840.38
2023-10-06T10:11:30.542Z,101820.22
2023-10-06T10:14:46.047Z,101817.78
2023-10-06T10:18:19.054Z,101819.88
2023-10-06T10:21:23.747Z,101809.47
2023-10-06T10:27:34.496Z,101806.50
2023-10-06T10:30:52.276Z,101801.03
2023-10-06T10:33:58.128Z,101792.94
2023-10-06T10:37:09.303Z,101786.41
2023-10-06T10:40:15.738Z,101782.16
2023-10-06T10:43:18.591Z,101773.88
2023-10-06T10:46:31.727Z,101768.13
2023-10-06T10:49:34.680Z,101767.81
2023-10-06T10:52:37.696Z,101753.13
2023-10-06T10:55:44.069Z,101758.38
2023-10-06T10:58:47.676Z,101755.44
2023-10-06T11:01:52.977Z,101749.09
2023-10-06T11:04:55.890Z,101748.13
2023-10-06T11:08:04.953Z,101746.34
2023-10-06T11:11:11.817Z,101737.00
2023-10-06T11:14:14.766Z,101737.00
2023-10-06T11:17:25.073Z,101732.03
2023-10-06T11:20:35.050Z,101728.94
2023-10-06T11:24:11.128Z,101722.81
2023-10-06T11:27:41.790Z,101713.19
2023-10-06T11:30:59.608Z,101713.75
2023-10-06T11:34:03.097Z,101711.91
2023-10-06T11:37:06.675Z,101706.50
2023-10-06T11:40:12.588Z,101697.50
2023-10-06T11:43:20.103Z,101694.50
2023-10-06T11:46:22.924Z,101687.56
2023-10-06T11:49:35.052Z,101688.84
2023-10-06T11:52:44.825Z,101687.97
2023-10-06T11:55:47.757Z,101684.31
2023-10-06T11:58:50.674Z,101684.97
2023-10-06T12:01:54.349Z,101681.00
2023-10-06T12:05:10.831Z,101677.13
2023-10-06T12:08:15.451Z,101672.41
2023-10-06T12:11:18.381Z,101670.69
2023-10-06T12:14:49.217Z,101668.53
2023-10-06T12:18:16.719Z,101670.19
2023-10-06T12:21:19.541Z,101668.50
2023-10-06T12:24:23.913Z,101665.06
2023-10-06T12:27:28.379Z,101663.38
2023-10-06T12:30:31.546Z,101671.34
2023-10-06T12:33:34.588Z,101672.03
2023-10-06T12:36:38.089Z,101656.00
2023-10-06T12:39:41.846Z,101659.22
2023-10-06T12:42:45.547Z,101650.97
2023-10-06T12:45:48.717Z,101644.06
2023-10-06T12:48:51.500Z,101644.63
2023-10-06T12:51:54.256Z,101636.31
2023-10-06T12:54:57.069Z,101630.28
2023-10-06T12:57:59.888Z,101631.53
2023-10-06T13:01:02.696Z,101634.38
2023-10-06T13:04:07.327Z,101625.53
2023-10-06T13:07:10.319Z,101622.13
2023-10-06T13:10:14.648Z,101626.16
2023-10-06T13:13:17.490Z,101626.97
2023-10-06T13:16:20.435Z,101619.06
2023-10-06T13:19:23.053Z,101621.88
2023-10-06T13:22:28.551Z,101598.91
2023-10-06T13:25:32.766Z,101597.22
2023-10-06T13:28:35.872Z,101601.88
2023-10-06T13:31:42.195Z,101598.19
2023-10-06T13:34:45.263Z,101593.09
2023-10-06T13:37:49.250Z,101599.16
2023-10-06T13:40:53.466Z,101604.03
2023-10-06T13:43:56.147Z,101597.13
2023-10-06T13:46:59.012Z,101588.81
2023-10-06T13:50:02.211Z,101597.19
2023-10-06T13:53:05.893Z,101601.09
2023-10-06T13:56:09.575Z,101590.22
2023-10-06T13:59:15.438Z,101594.06
2023-10-06T14:02:18.280Z,101592.63
2023-10-06T14:05:22.580Z,101590.50
2023-10-06T14:08:26.564Z,101586.00
2023-10-06T14:11:31.666Z,101594.47
2023-10-06T14:14:46.701Z,101590.75
2023-10-06T14:17:56.210Z,101589.56
2023-10-06T14:20:59.447Z,101590.81
2023-10-06T14:24:06.930Z,101595.28
2023-10-06T14:27:12.536Z,101594.38
2023-10-06T14:30:16.441Z,101601.97
2023-10-06T14:33:40.035Z,101612.38
2023-10-06T14:36:44.944Z,101607.34
2023-10-06T14:40:10.933Z,101590.50
2023-10-06T14:43:36.641Z,101594.28
2023-10-06T14:46:41.258Z,101604.03
2023-10-06T14:49:45.189Z,101600.66
2023-10-06T14:52:48.254Z,101600.88
2023-10-06T14:55:51.097Z,101585.69
2023-10-06T14:58:57.669Z,101587.34
2023-10-06T15:02:11.954Z,101587.06
2023-10-06T15:05:16.546Z,101588.91
2023-10-06T15:08:19.706Z,101591.59
2023-10-06T15:11:22.538Z,101589.53
2023-10-06T15:14:26.683Z,101592.16
2023-10-06T15:17:32.451Z,101582.06
2023-10-06T15:20:35.619Z,101578.44
2023-10-06T15:23:38.300Z,101582.56
2023-10-06T15:26:44.845Z,101575.94
2023-10-06T15:29:47.652Z,101575.59
2023-10-06T15:32:50.393Z,101577.88
2023-10-06T15:35:54.311Z,101578.78
2023-10-06T15:39:02.156Z,101580.75
2023-10-06T15:42:05.679Z,101588.09
2023-10-06T15:45:09.204Z,101586.81
2023-10-06T15:48:14.718Z,101592.19
2023-10-06T15:51:19.996Z,101581.41
2023-10-06T15:54:23.575Z,101579.75
2023-10-06T15:57:26.439Z,101582.81
2023-10-06T16:00:30.738Z,101575.78
2023-10-06T16:03:33.654Z,101586.72
2023-10-06T16:06:37.941Z,101591.69
2023-10-06T16:09:40.810Z,101588.50
2023-10-06T16:12:43.949Z,101590.97
2023-10-06T16:16:04.137Z,101600.38
2023-10-06T16:19:18.618Z,101594.63
2023-10-06T16:22:21.545Z,101594.56
2023-10-06T16:25:25.033Z,101587.78
2023-10-06T16:28:29.068Z,101588.75
2023-10-06T16:31:33.373Z,101597.13
2023-10-06T16:34:36.185Z,101603.53
2023-10-06T16:37:38.820Z,101605.72
2023-10-06T16:40:42.865Z,101618.13
2023-10-06T16:43:45.598Z,101608.41
2023-10-06T16:46:49.435Z,101614.66
2023-10-06T16:49:52.321Z,101612.50
2023-10-06T16:52:56.620Z,101603.97
2023-10-06T16:56:00.188Z,101612.63
2023-10-06T16:59:02.847Z,101609.41
2023-10-06T17:02:05.661Z,101611.19
2023-10-06T17:05:08.886Z,101615.25
2023-10-06T17:08:11.812Z,101624.03
2023-10-06T17:11:22.810Z,101629.53
2023-10-06T17:14:25.445Z,101625.50
2023-10-06T17:17:28.341Z,101625.75
2023-10-06T17:20:31.163Z,101620.94
2023-10-06T17:23:35.002Z,101622.09
2023-10-06T17:26:37.776Z,101628.16
2023-10-06T17:29:40.669Z,101627.56
2023-10-06T17:32:47.134Z,101634.41
2023-10-06T17:35:50.804Z,101640.00
2023-10-06T17:38:56.380Z,101638.63
2023-10-06T17:41:59.103Z,101636.19
2023-10-06T17:45:04.230Z,101639.09
2023-10-06T17:48:07.444Z,101640.97
2023-10-06T17:51:20.524Z,101645.97
2023-10-06T17:54:23.543Z,101635.50
2023-10-06T17:57:26.804Z,101652.59
2023-10-06T18:00:29.679Z,101650.97
2023-10-06T18:03:32.621Z,101650.97
2023-10-06T18:06:35.642Z,101651.22
2023-10-06T18:09:38.978Z,101655.13
2023-10-06T18:12:42.406Z,101657.38
2023-10-06T18:15:48.351Z,101644.22
2023-10-06T18:18:51.047Z,101651.84
2023-10-06T18:21:53.879Z,101656.16
2023-10-06T18:24:56.664Z,101664.56
2023-10-06T18:27:59.620Z,101663.75
2023-10-06T18:31:02.444Z,101660.88
2023-10-06T18:34:05.291Z,101663.50
2023-10-06T18:37:08.121Z,101670.25
2023-10-06T18:40:14.868Z,101664.91
2023-10-06T18:43:18.225Z,101671.88
2023-10-06T18:46:22.271Z,101674.94
2023-10-06T18:49:25.392Z,101676.19
2023-10-06T18:53:19.289Z,101682.94
2023-10-06T18:56:21.938Z,101688.59
2023-10-06T18:59:24.593Z,101687.91
2023-10-06T19:02:29.603Z,101687.47
2023-10-06T19:05:33.922Z,101677.03
2023-10-06T19:08:44.953Z,101671.50
2023-10-06T19:11:47.816Z,101670.25
2023-10-06T19:14:50.798Z,101679.72
2023-10-06T19:17:53.701Z,101665.56
2023-10-06T19:21:03.013Z,101662.59
2023-10-06T19:24:06.790Z,101653.31
2023-10-06T19:27:12.616Z,101647.72
2023-10-06T19:30:15.936Z,101650.00
2023-10-06T19:33:18.562Z,101658.25
2023-10-06T19:36:21.872Z,101654.81
2023-10-06T19:39:29.644Z,101642.09
2023-10-06T19:42:32.453Z,101630.06
2023-10-06T19:45:40.728Z,101634.72
2023-10-06T19:48:44.030Z,101625.16
2023-10-06T19:51:47.905Z,101622.19
2023-10-06T19:54:53.494Z,101621.50
2023-10-06T19:57:56.807Z,101619.31
2023-10-06T20:00:59.895Z,101620.47
2023-10-06T20:04:04.465Z,101622.47
2023-10-06T20:07:07.625Z,101619.75
2023-10-06T20:10:10.589Z,101631.59
2023-10-06T20:13:13.273Z,101635.88
2023-10-06T20:16:17.504Z,101651.28
2023-10-06T20:19:21.908Z,101649.81
2023-10-06T20:22:25.458Z,101656.25
2023-10-06T20:25:28.331Z,101656.13
2023-10-06T20:28:31.226Z,101661.56
2023-10-06T20:31:35.541Z,101653.94
2023-10-06T20:34:39.217Z,101651.28
2023-10-06T20:37:43.128Z,101647.63
2023-10-06T20:40:47.737Z,101649.28
2023-10-06T20:43:50.701Z,101647.25
2023-10-06T20:46:53.566Z,101649.19
2023-10-06T20:49:57.249Z,101651.41
2023-10-06T20:53:00.698Z,101654.59
2023-10-06T20:56:04.756Z,101659.69
2023-10-06T20:59:08.871Z,101657.03
2023-10-06T21:02:11.559Z,101657.53
2023-10-06T21:05:17.114Z,101660.63
2023-10-06T21:08:20.413Z,101658.78
2023-10-06T21:11:24.302Z,101669.88
2023-10-06T21:14:27.177Z,101658.91
2023-10-06T21:17:30.026Z,101657.97
2023-10-06T21:20:32.724Z,101653.03
2023-10-06T21:23:35.343Z,101649.91
2023-10-06T21:26:38.325Z,101661.56
2023-10-06T21:29:42.642Z,101659.06
2023-10-06T21:32:46.463Z,101660.06
2023-10-06T21:35:49.577Z,101667.78
2023-10-06T21:38:52.268Z,101667.13
2023-10-06T21:41:55.022Z,101665.91
2023-10-06T21:44:57.615Z,101661.97
2023-10-06T21:48:00.774Z,101660.44
2023-10-06T21:51:03.585Z,101660.13
2023-10-06T21:54:06.519Z,101666.63
2023-10-06T21:57:10.550Z,101664.06
2023-10-06T22:00:26.584Z,101666.09
2023-10-06T22:03:29.739Z,101666.81
2023-10-06T22:06:33.915Z,101665.34
2023-10-06T22:09:36.711Z,101672.47
2023-10-06T22:12:39.523Z,101658.25
2023-10-06T22:15:42.185Z,101659.72
2023-10-06T22:18:45.441Z,101660.91
2023-10-06T22:21:48.085Z,101656.78
2023-10-06T22:24:50.825Z,101664.72
2023-10-06T22:27:53.784Z,101656.13
2023-10-06T22:30:56.597Z,101648.72
2023-10-06T22:33:59.494Z,101638.09
2023-10-06T22:37:09.726Z,101640.50
2023-10-06T22:40:19.817Z,101643.88
2023-10-06T22:43:22.537Z,101644.25
2023-10-06T22:46:25.524Z,101652.38
2023-10-06T22:49:28.329Z,101651.41
2023-10-06T22:52:31.026Z,101650.44
2023-10-06T22:56:00.250Z,101647.16
2023-10-06T22:59:10.696Z,101648.78
2023-10-06T23:02:14.004Z,101636.91
2023-10-06T23:05:16.950Z,101635.19
2023-10-06T23:08:19.735Z,101634.56
2023-10-06T23:11:22.525Z,101628.25
2023-10-06T23:14:25.296Z,101619.84
2023-10-06T23:17:31.008Z,101619.31
2023-10-06T23:20:43.162Z,101616.84
2023-10-06T23:23:48.604Z,101624.94
2023-10-06T23:26:51.495Z,101618.28
2023-10-06T23:29:54.606Z,101627.34
2023-10-06T23:32:57.376Z,101622.25
2023-10-06T23:36:00.202Z,101622.03
2023-10-06T23:39:02.874Z,101620.91
2023-10-06T23:42:10.620Z,101617.84
2023-10-06T23:45:16.969Z,101621.66
2023-10-06T23:48:19.671Z,101625.59
2023-10-06T23:51:22.580Z,101624.28
2023-10-06T23:54:27.269Z,101622.47
2023-10-06T23:57:33.190Z,101612.19
